Time;durP1;ratioP1;P1;durP2;ratioP2;P2;SDS_P1;SDS_P2;PMS_P1;PMS_P2;Temp;Humidity;BMP_temperature;BMP_pressure;BME280_temperature;BME280_humidity;BME280_pressure;Samples;Min_cycle;Max_cycle;Signal;HPM_P1;HPM_P2
2022/05/30 00:01:06;;;;;;;2.88;1.13;;;6.80;99.90;;;;;;5009227;28;20026;-58
2022/05/30 00:03:31;;;;;;;3.22;0.60;;;6.80;99.90;;;;;;5010732;28;20030;-58
2022/05/30 00:05:57;;;;;;;1.27;0.70;;;6.80;99.90;;;;;;5008056;28;20072;-58
2022/05/30 00:08:23;;;;;;;0.70;0.40;;;6.80;99.90;;;;;;5010947;28;20498;-58
2022/05/30 00:10:48;;;;;;;0.55;0.45;;;6.80;99.90;;;;;;5009552;28;20091;-57
2022/05/30 00:13:14;;;;;;;1.45;0.57;;;6.80;99.90;;;;;;5007165;28;20045;-57
2022/05/30 00:15:40;;;;;;;0.63;0.30;;;6.70;99.90;;;;;;5010985;28;20018;-58
2022/05/30 00:18:09;;;;;;;0.85;0.60;;;6.70;99.90;;;;;;5009136;28;20026;-58
2022/05/30 00:20:36;;;;;;;2.05;0.55;;;6.70;99.90;;;;;;5010477;28;20084;-58
2022/05/30 00:23:03;;;;;;;0.93;0.47;;;6.60;99.90;;;;;;5007205;28;20026;-58
2022/05/30 00:25:29;;;;;;;0.60;0.40;;;6.60;99.90;;;;;;5005478;28;20030;-58
2022/05/30 00:27:54;;;;;;;2.10;0.80;;;6.60;99.90;;;;;;5009776;28;20037;-58
2022/05/30 00:30:20;;;;;;;3.55;1.10;;;6.50;99.90;;;;;;5006895;28;20144;-58
2022/05/30 00:32:46;;;;;;;3.30;1.42;;;6.50;99.90;;;;;;5010248;28;20136;-57
2022/05/30 00:35:13;;;;;;;1.88;1.00;;;6.40;99.90;;;;;;5008584;28;20149;-59
2022/05/30 00:37:39;;;;;;;5.75;2.40;;;6.40;99.90;;;;;;5010420;28;20025;-58
2022/05/30 00:40:06;;;;;;;4.47;1.60;;;6.40;99.90;;;;;;5007422;28;20029;-58
2022/05/30 00:42:33;;;;;;;2.80;1.75;;;6.40;99.90;;;;;;5009827;28;20069;-58
2022/05/30 00:44:59;;;;;;;3.92;1.30;;;6.40;99.90;;;;;;5008223;28;20025;-59
2022/05/30 00:47:25;;;;;;;1.90;1.02;;;6.40;99.90;;;;;;5009201;28;20084;-58
2022/05/30 00:49:51;;;;;;;6.10;1.08;;;6.40;99.90;;;;;;5010118;28;20026;-58
2022/05/30 00:52:28;;;;;;;1.92;1.08;;;6.40;99.90;;;;;;5006717;28;20378;-58
2022/05/30 00:55:03;;;;;;;3.08;1.13;;;6.40;99.90;;;;;;5007938;28;20383;-58
2022/05/30 00:57:32;;;;;;;1.27;1.15;;;6.20;99.90;;;;;;5009398;28;20045;-57
2022/05/30 01:00:17;;;;;;;1.58;1.23;;;6.10;99.90;;;;;;5008201;28;20033;-57
2022/05/30 01:02:44;;;;;;;2.30;1.35;;;6.00;99.90;;;;;;5009184;28;20061;-57
2022/05/30 01:07:59;;;;;;;1.63;1.08;;;6.00;99.90;;;;;;5006786;28;20072;-57
2022/05/30 01:10:26;;;;;;;2.00;1.13;;;5.90;99.90;;;;;;5009598;28;20469;-57
2022/05/30 01:12:55;;;;;;;4.05;1.60;;;5.90;99.90;;;;;;5008434;28;20028;-57
2022/05/30 01:15:26;;;;;;;3.40;1.10;;;5.80;99.90;;;;;;5010024;28;20045;-58
2022/05/30 01:17:59;;;;;;;2.22;1.40;;;5.90;99.90;;;;;;5005823;28;20092;-57
2022/05/30 01:20:40;;;;;;;2.05;1.08;;;5.90;99.90;;;;;;5010040;28;20038;-58
2022/05/30 01:23:15;;;;;;;2.13;1.13;;;5.90;99.90;;;;;;5007601;28;20393;-58
2022/05/30 01:26:23;;;;;;;2.83;1.40;;;5.90;99.90;;;;;;5013847;28;20042;-58
2022/05/30 01:28:55;;;;;;;3.53;1.77;;;5.90;99.90;;;;;;5007691;28;20564;-57
2022/05/30 01:31:22;;;;;;;2.13;1.35;;;5.70;99.90;;;;;;5004259;28;20117;-58
2022/05/30 01:33:47;;;;;;;3.95;1.30;;;5.70;99.90;;;;;;5012758;28;20038;-58
2022/05/30 01:36:13;;;;;;;1.83;0.93;;;5.80;99.90;;;;;;5011350;28;20030;-57
2022/05/30 01:38:39;;;;;;;2.28;1.02;;;5.80;99.90;;;;;;5012567;28;20120;-57
2022/05/30 01:41:05;;;;;;;1.77;1.30;;;5.70;99.90;;;;;;5010562;28;20030;-57
2022/05/30 01:43:32;;;;;;;1.58;1.13;;;5.60;99.90;;;;;;5012897;28;20040;-56
2022/05/30 01:46:04;;;;;;;1.70;1.20;;;5.60;99.90;;;;;;5010316;28;20018;-57
2022/05/30 01:48:30;;;;;;;4.05;1.52;;;5.60;99.90;;;;;;5012901;28;20030;-57
2022/05/30 01:50:57;;;;;;;1.48;1.20;;;5.60;99.90;;;;;;5012891;28;20129;-57
2022/05/30 01:53:23;;;;;;;3.08;1.63;;;5.60;99.90;;;;;;5012948;28;20037;-57
2022/05/30 01:55:49;;;;;;;3.70;1.45;;;5.60;99.90;;;;;;5011834;28;20034;-57
2022/05/30 01:58:14;;;;;;;1.40;1.23;;;5.60;99.90;;;;;;5011032;28;20033;-57
2022/05/30 02:00:40;;;;;;;2.90;1.45;;;5.60;99.90;;;;;;5012387;28;20040;-57
2022/05/30 02:03:06;;;;;;;2.40;1.33;;;5.60;99.90;;;;;;5011542;28;20492;-57
2022/05/30 02:05:33;;;;;;;1.50;1.10;;;5.60;99.90;;;;;;5012464;28;20034;-57
2022/05/30 02:07:59;;;;;;;2.50;1.05;;;5.60;99.90;;;;;;5010526;28;20037;-57
2022/05/30 02:10:25;;;;;;;1.83;1.30;;;5.70;99.90;;;;;;5012405;28;20034;-58
2022/05/30 02:12:50;;;;;;;2.88;1.05;;;5.70;99.90;;;;;;5008443;28;20048;-57
2022/05/30 02:15:16;;;;;;;3.08;1.10;;;5.70;99.90;;;;;;5011162;28;20910;-56
2022/05/30 02:17:42;;;;;;;2.85;1.20;;;5.80;99.90;;;;;;5012875;28;20505;-57
2022/05/30 02:20:08;;;;;;;2.72;1.30;;;5.70;99.90;;;;;;5011221;28;20030;-56
2022/05/30 02:22:34;;;;;;;3.45;1.00;;;5.70;99.90;;;;;;5011687;28;20030;-57
2022/05/30 02:25:00;;;;;;;2.72;1.15;;;5.80;99.90;;;;;;5010456;28;20030;-57
2022/05/30 02:27:26;;;;;;;2.17;1.00;;;5.70;99.90;;;;;;5012550;28;20490;-57
2022/05/30 02:29:52;;;;;;;3.22;1.40;;;5.70;99.90;;;;;;5011163;28;20117;-57
2022/05/30 02:32:18;;;;;;;2.22;1.63;;;5.70;99.90;;;;;;5009672;28;20038;-57
2022/05/30 02:37:29;;;;;;;2.72;1.70;;;5.70;99.90;;;;;;5001794;28;20041;-57
2022/05/30 02:39:54;;;;;;;3.17;1.70;;;5.70;99.90;;;;;;5012243;28;20117;-59
2022/05/30 02:42:20;;;;;;;4.22;2.20;;;5.80;99.90;;;;;;5006294;28;20117;-57
2022/05/30 02:44:46;;;;;;;4.60;1.77;;;5.80;99.90;;;;;;5012158;28;20474;-57
2022/05/30 02:47:11;;;;;;;3.05;1.45;;;5.90;99.90;;;;;;5010076;28;20083;-57
2022/05/30 02:49:37;;;;;;;3.03;1.25;;;5.90;99.90;;;;;;5011347;28;20037;-57
2022/05/30 02:52:04;;;;;;;2.53;1.70;;;6.00;99.90;;;;;;5009224;28;20037;-57
2022/05/30 02:54:29;;;;;;;4.88;1.52;;;6.20;99.90;;;;;;5012131;28;20409;-57
2022/05/30 02:56:58;;;;;;;3.05;1.50;;;6.30;99.90;;;;;;5010521;28;20034;-57
2022/05/30 02:59:25;;;;;;;2.00;1.77;;;6.30;99.90;;;;;;5011864;28;20034;-57
2022/05/30 03:01:52;;;;;;;4.68;1.65;;;6.40;99.90;;;;;;5011982;28;20080;-57
2022/05/30 03:04:19;;;;;;;3.42;1.70;;;6.40;99.90;;;;;;5001833;28;20038;-57
2022/05/30 03:06:46;;;;;;;2.72;1.55;;;6.40;99.90;;;;;;5011882;28;20386;-56
2022/05/30 03:09:13;;;;;;;3.92;1.48;;;6.10;99.90;;;;;;5008770;28;20030;-56
2022/05/30 03:11:39;;;;;;;2.85;1.73;;;6.00;99.90;;;;;;5006343;28;20112;-57
2022/05/30 03:14:04;;;;;;;2.88;1.33;;;5.80;99.90;;;;;;5009898;28;20137;-58
2022/05/30 03:16:31;;;;;;;3.45;1.35;;;5.60;99.90;;;;;;5011680;28;20099;-57
2022/05/30 03:18:56;;;;;;;1.90;1.30;;;5.50;99.90;;;;;;5009164;28;20025;-58
2022/05/30 03:21:22;;;;;;;1.77;1.50;;;5.50;99.90;;;;;;5009045;28;20030;-58
2022/05/30 03:23:48;;;;;;;2.25;1.92;;;5.40;99.90;;;;;;5011460;28;20036;-58
2022/05/30 03:26:16;;;;;;;3.50;1.58;;;5.30;99.90;;;;;;5009830;28;20022;-58
2022/05/30 03:28:42;;;;;;;4.47;1.50;;;5.20;99.90;;;;;;5009971;28;20437;-58
2022/05/30 03:31:08;;;;;;;2.45;1.42;;;5.10;99.90;;;;;;5008269;28;20049;-58
2022/05/30 03:33:36;;;;;;;2.28;1.98;;;5.10;99.90;;;;;;5011357;28;20477;-58
2022/05/30 03:36:07;;;;;;;4.60;1.52;;;5.10;99.90;;;;;;5009220;28;20473;-58
2022/05/30 03:38:33;;;;;;;1.50;1.13;;;5.10;99.90;;;;;;5005017;28;20037;-58
2022/05/30 03:40:59;;;;;;;4.10;1.33;;;5.20;99.90;;;;;;5008704;28;20033;-58
2022/05/30 03:43:26;;;;;;;2.30;1.58;;;5.20;99.90;;;;;;5010866;28;20030;-58
2022/05/30 03:45:52;;;;;;;2.30;1.42;;;5.20;99.90;;;;;;5010331;28;20057;-58
2022/05/30 03:48:20;;;;;;;2.15;1.10;;;5.20;99.90;;;;;;5009498;28;20091;-57
2022/05/30 03:50:48;;;;;;;1.65;0.95;;;5.10;99.90;;;;;;5010627;28;20168;-57
2022/05/30 03:53:14;;;;;;;2.65;1.30;;;5.10;99.90;;;;;;5007534;28;20068;-57
2022/05/30 03:55:42;;;;;;;2.78;1.65;;;5.10;99.90;;;;;;5011051;28;20474;-57
2022/05/30 03:58:10;;;;;;;3.78;1.20;;;5.20;99.90;;;;;;5008761;28;20382;-57
2022/05/30 04:00:38;;;;;;;2.33;1.35;;;5.20;99.90;;;;;;5010687;28;20022;-57
2022/05/30 04:03:04;;;;;;;3.35;1.40;;;5.20;99.90;;;;;;5008958;28;20029;-57
2022/05/30 04:05:30;;;;;;;1.38;1.27;;;5.10;99.90;;;;;;5010720;28;20025;-57
2022/05/30 04:07:57;;;;;;;2.28;1.20;;;5.10;99.90;;;;;;5009659;28;20394;-57
2022/05/30 04:10:24;;;;;;;3.50;1.27;;;5.00;99.90;;;;;;5008845;28;20080;-58
2022/05/30 04:12:50;;;;;;;2.20;1.00;;;5.10;99.90;;;;;;5008682;28;20068;-57
2022/05/30 04:15:22;;;;;;;1.60;1.30;;;5.10;99.90;;;;;;5008490;28;20062;-57
2022/05/30 04:17:49;;;;;;;2.47;1.50;;;5.10;99.90;;;;;;5004839;28;20022;-57
2022/05/30 04:20:15;;;;;;;3.10;1.27;;;5.20;99.90;;;;;;5008592;28;20109;-57
2022/05/30 04:22:41;;;;;;;4.75;1.63;;;5.10;99.90;;;;;;5009427;28;20025;-57
2022/05/30 04:25:07;;;;;;;3.28;1.20;;;5.10;99.90;;;;;;5008390;28;20526;-58
2022/05/30 04:27:33;;;;;;;3.20;1.45;;;5.10;99.90;;;;;;5008611;28;20053;-57
2022/05/30 04:29:59;;;;;;;2.97;1.70;;;5.10;99.90;;;;;;5008672;28;20068;-57
2022/05/30 04:32:26;;;;;;;3.17;1.30;;;5.10;99.90;;;;;;5009036;28;20046;-58
2022/05/30 04:34:52;;;;;;;2.50;0.90;;;5.10;99.90;;;;;;5010574;28;20034;-57
2022/05/30 04:37:18;;;;;;;2.15;1.02;;;5.10;99.90;;;;;;5007750;28;20079;-58
2022/05/30 04:39:44;;;;;;;4.68;1.45;;;5.10;99.90;;;;;;5025815;28;20034;-57
2022/05/30 04:42:10;;;;;;;2.03;1.17;;;5.20;99.90;;;;;;5008448;28;20044;-56
2022/05/30 04:44:35;;;;;;;3.03;1.25;;;5.20;99.90;;;;;;5005752;28;20030;-57
2022/05/30 04:47:02;;;;;;;2.40;1.35;;;5.20;99.90;;;;;;5007992;28;20109;-57
2022/05/30 04:49:28;;;;;;;1.98;1.63;;;5.30;99.90;;;;;;5010175;28;20458;-59
2022/05/30 04:51:54;;;;;;;2.97;1.25;;;5.30;99.90;;;;;;5009945;28;20022;-57
2022/05/30 04:54:21;;;;;;;1.70;1.40;;;5.40;99.90;;;;;;5007106;28;20038;-58
2022/05/30 04:56:47;;;;;;;6.30;2.58;;;5.40;99.90;;;;;;5009674;28;20026;-57
2022/05/30 04:59:13;;;;;;;3.42;1.05;;;5.50;99.90;;;;;;5006948;28;20464;-57
2022/05/30 05:01:39;;;;;;;2.50;1.38;;;5.50;99.90;;;;;;5002421;28;20121;-58
2022/05/30 05:04:07;;;;;;;4.97;1.20;;;5.50;99.90;;;;;;5007589;28;20032;-57
2022/05/30 05:06:33;;;;;;;3.03;1.42;;;5.60;99.90;;;;;;5009587;28;20105;-57
2022/05/30 05:09:34;;;;;;;4.03;1.40;;;5.70;99.90;;;;;;5006581;28;20113;-57
2022/05/30 05:12:00;;;;;;;3.05;1.77;;;5.70;99.90;;;;;;5001240;28;20128;-57
2022/05/30 05:14:25;;;;;;;4.38;1.70;;;5.80;99.90;;;;;;5009452;28;20132;-60
2022/05/30 05:16:51;;;;;;;4.45;1.60;;;5.80;99.90;;;;;;5009090;28;20030;-57
2022/05/30 05:19:17;;;;;;;2.13;1.45;;;5.90;99.90;;;;;;5007195;28;20065;-57
2022/05/30 05:21:45;;;;;;;2.20;1.50;;;5.90;99.90;;;;;;5012305;28;20541;-57
2022/05/30 05:24:11;;;;;;;3.33;2.15;;;6.10;99.90;;;;;;5007838;28;20026;-57
2022/05/30 05:26:43;;;;;;;2.17;1.60;;;6.10;99.90;;;;;;5007286;28;20036;-56
2022/05/30 05:29:09;;;;;;;3.45;1.67;;;6.10;99.90;;;;;;5008084;28;20034;-57
2022/05/30 05:31:35;;;;;;;3.70;1.70;;;6.20;99.90;;;;;;5009296;28;20050;-57
2022/05/30 05:34:04;;;;;;;3.70;1.92;;;6.30;99.90;;;;;;5007469;28;20096;-58
2022/05/30 05:36:33;;;;;;;3.92;1.77;;;6.30;99.90;;;;;;5008909;28;20109;-57
2022/05/30 05:38:59;;;;;;;4.05;2.10;;;6.40;99.90;;;;;;5007772;28;20034;-57
2022/05/30 05:41:25;;;;;;;3.50;1.95;;;6.40;99.90;;;;;;5005848;28;20026;-58
2022/05/30 05:43:54;;;;;;;3.55;2.28;;;6.40;99.90;;;;;;5009404;28;20030;-57
2022/05/30 05:46:23;;;;;;;2.30;1.73;;;6.40;99.90;;;;;;5007619;28;20072;-57
2022/05/30 05:48:51;;;;;;;3.65;2.17;;;6.40;99.90;;;;;;5009283;28;20084;-58
2022/05/30 05:51:18;;;;;;;3.72;2.47;;;6.50;99.90;;;;;;5001808;28;20978;-58
2022/05/30 05:53:44;;;;;;;3.78;1.55;;;6.60;99.90;;;;;;5007421;28;20029;-57
2022/05/30 05:56:12;;;;;;;3.03;1.98;;;6.60;99.90;;;;;;5005218;28;20394;-58
2022/05/30 05:58:37;;;;;;;5.07;2.25;;;6.70;99.90;;;;;;5008849;28;20040;-58
2022/05/30 06:01:11;;;;;;;2.35;1.77;;;6.80;99.90;;;;;;5005811;28;20025;-58
2022/05/30 06:03:37;;;;;;;3.95;1.95;;;6.90;99.90;;;;;;5009286;28;20041;-58
2022/05/30 06:06:04;;;;;;;5.60;2.10;;;7.00;99.90;;;;;;5006727;28;20030;-58
2022/05/30 06:08:31;;;;;;;7.30;2.35;;;7.00;99.90;;;;;;5009103;28;20053;-59
2022/05/30 06:11:08;;;;;;;3.10;2.13;;;7.00;99.90;;;;;;5012210;28;20120;-58
2022/05/30 06:13:44;;;;;;;7.90;2.03;;;7.10;99.90;;;;;;5012117;28;20046;-58
2022/05/30 06:16:14;;;;;;;5.55;2.45;;;7.20;99.90;;;;;;5009047;28;20389;-58
2022/05/30 06:18:40;;;;;;;5.93;2.40;;;7.20;99.90;;;;;;4999847;28;20046;-58
2022/05/30 06:21:06;;;;;;;3.10;2.03;;;7.30;99.90;;;;;;5010835;28;20053;-63
2022/05/30 06:23:32;;;;;;;5.70;2.50;;;7.50;99.90;;;;;;5012666;28;20497;-58
2022/05/30 06:26:01;;;;;;;5.47;2.30;;;7.60;99.90;;;;;;5009435;28;20080;-58
2022/05/30 06:28:28;;;;;;;4.63;2.17;;;7.70;99.90;;;;;;4998557;28;20022;-58
2022/05/30 06:30:54;;;;;;;6.63;2.20;;;7.80;99.90;;;;;;5009504;28;20041;-58
2022/05/30 06:33:20;;;;;;;5.22;2.22;;;7.90;99.90;;;;;;5012140;28;20520;-58
2022/05/30 06:35:46;;;;;;;3.78;2.05;;;8.00;99.90;;;;;;5025650;28;20060;-59
2022/05/30 06:38:12;;;;;;;6.70;2.40;;;8.00;99.90;;;;;;5010289;28;20113;-58
2022/05/30 06:40:38;;;;;;;5.60;2.28;;;8.10;99.90;;;;;;5021326;28;20493;-58
2022/05/30 06:43:04;;;;;;;7.07;2.47;;;8.10;99.90;;;;;;5009477;28;20030;-59
2022/05/30 06:45:32;;;;;;;4.32;2.20;;;8.20;99.90;;;;;;5015326;28;20022;-58
2022/05/30 06:47:58;;;;;;;4.80;2.78;;;8.40;99.90;;;;;;5021510;28;20037;-57
2022/05/30 06:50:26;;;;;;;4.97;2.35;;;8.50;99.90;;;;;;5011948;28;20481;-58
2022/05/30 06:52:51;;;;;;;5.15;2.35;;;8.60;99.90;;;;;;5010778;28;20477;-57
2022/05/30 06:55:17;;;;;;;7.60;2.67;;;8.70;99.90;;;;;;5017754;28;20034;-58
2022/05/30 07:00:28;;;;;;;6.35;2.53;;;8.90;99.90;;;;;;5010198;28;20145;-58
2022/05/30 07:02:54;;;;;;;7.28;1.90;;;9.10;99.90;;;;;;5011661;28;20033;-57
2022/05/30 07:05:19;;;;;;;14.30;2.67;;;9.30;99.90;;;;;;5010160;28;20022;-58
2022/05/30 07:07:46;;;;;;;3.97;1.88;;;9.40;99.90;;;;;;5010247;28;20041;-57
2022/05/30 07:10:12;;;;;;;5.03;1.67;;;9.50;99.90;;;;;;5009732;28;20087;-58
2022/05/30 07:12:38;;;;;;;6.80;2.50;;;9.70;99.90;;;;;;5011007;28;20478;-57
2022/05/30 07:15:06;;;;;;;4.63;2.25;;;9.90;99.90;;;;;;5017778;28;20044;-58
2022/05/30 07:17:31;;;;;;;6.53;3.28;;;10.10;99.90;;;;;;5012999;28;20026;-58
2022/05/30 07:19:58;;;;;;;6.20;1.40;;;10.30;99.90;;;;;;5014497;28;20486;-58
2022/05/30 07:22:24;;;;;;;5.18;1.85;;;10.40;99.90;;;;;;5006425;28;20434;-59
2022/05/30 07:24:50;;;;;;;6.53;1.83;;;10.50;99.90;;;;;;5009787;28;20540;-58
2022/05/30 07:27:16;;;;;;;4.90;1.30;;;10.60;99.90;;;;;;5006124;28;20026;-58
2022/05/30 07:29:42;;;;;;;4.88;1.35;;;10.60;99.90;;;;;;5018226;28;20022;-59
2022/05/30 07:32:08;;;;;;;6.50;1.27;;;10.70;99.90;;;;;;5007524;28;20045;-58
2022/05/30 07:34:34;;;;;;;8.43;1.13;;;10.80;99.90;;;;;;5010614;28;20121;-58
2022/05/30 07:37:00;;;;;;;2.40;0.88;;;10.80;99.90;;;;;;5011231;28;20120;-57
2022/05/30 07:39:26;;;;;;;1.67;0.90;;;10.90;99.90;;;;;;5005786;28;20034;-57
2022/05/30 07:41:52;;;;;;;6.75;2.00;;;11.00;99.90;;;;;;5007162;28;20076;-57
2022/05/30 07:44:18;;;;;;;8.65;2.05;;;11.10;99.90;;;;;;5003654;28;20651;-59
2022/05/30 07:46:45;;;;;;;9.10;1.33;;;11.30;99.90;;;;;;5019178;28;20093;-58
2022/05/30 07:49:14;;;;;;;5.55;0.77;;;11.60;99.90;;;;;;5008842;28;20056;-59
2022/05/30 07:51:42;;;;;;;5.60;0.63;;;11.80;99.30;;;;;;5009218;28;20117;-58
2022/05/30 07:54:07;;;;;;;3.17;0.80;;;12.00;98.60;;;;;;5021731;28;20041;-58
2022/05/30 07:56:33;;;;;;;2.78;0.60;;;12.20;98.30;;;;;;5017012;28;20029;-58
2022/05/30 07:58:59;;;;;;;2.25;0.60;;;12.40;97.60;;;;;;5009036;28;20061;-59
2022/05/30 08:01:25;;;;;;;4.30;0.70;;;12.50;96.80;;;;;;5017027;28;20047;-59
2022/05/30 08:03:51;;;;;;;3.05;0.57;;;12.60;96.10;;;;;;5013855;28;20022;-59
2022/05/30 08:06:20;;;;;;;3.25;0.90;;;12.80;96.70;;;;;;5008486;28;20080;-59
2022/05/30 08:08:46;;;;;;;1.90;0.75;;;13.00;91.80;;;;;;5010134;28;20068;-59
2022/05/30 08:11:15;;;;;;;1.80;0.50;;;13.30;90.70;;;;;;5008571;28;20041;-59
2022/05/30 08:13:40;;;;;;;7.95;0.82;;;13.60;86.90;;;;;;5012287;28;20033;-59
2022/05/30 08:16:07;;;;;;;3.30;0.50;;;14.00;86.50;;;;;;5013476;28;20029;-59
2022/05/30 08:18:34;;;;;;;6.03;1.10;;;14.30;86.10;;;;;;5017289;28;20486;-58
2022/05/30 08:21:00;;;;;;;4.93;1.00;;;14.40;84.20;;;;;;5008730;28;20030;-58
2022/05/30 08:23:27;;;;;;;2.28;0.90;;;14.70;83.10;;;;;;5012048;28;20036;-58
2022/05/30 08:25:53;;;;;;;2.60;0.30;;;14.60;80.00;;;;;;5009676;28;20044;-58
2022/05/30 08:28:19;;;;;;;4.00;0.50;;;14.70;78.60;;;;;;5012441;28;20028;-56
2022/05/30 08:30:45;;;;;;;10.13;1.20;;;15.00;78.00;;;;;;5009800;28;20042;-56
2022/05/30 08:33:14;;;;;;;2.22;0.70;;;15.20;77.20;;;;;;5015661;28;20047;-58
2022/05/30 08:35:40;;;;;;;6.72;0.63;;;15.30;77.80;;;;;;5019254;28;20556;-58
2022/05/30 08:38:06;;;;;;;2.38;0.60;;;15.50;76.00;;;;;;5008364;28;20022;-57
2022/05/30 08:43:37;;;;;;;2.93;0.50;;;15.60;76.30;;;;;;5006787;28;20040;-57
2022/05/30 08:46:18;;;;;;;3.95;0.80;;;15.50;74.80;;;;;;5010259;28;20428;-58
2022/05/30 08:49:06;;;;;;;2.00;0.50;;;15.60;73.60;;;;;;5005870;28;20029;-57
2022/05/30 08:51:34;;;;;;;2.17;0.70;;;15.70;74.30;;;;;;5008573;28;20550;-57
2022/05/30 08:54:28;;;;;;;2.53;0.50;;;15.70;74.90;;;;;;5013983;28;20041;-58
2022/05/30 08:56:58;;;;;;;3.20;0.40;;;15.60;73.30;;;;;;5008274;28;20061;-57
2022/05/30 08:59:29;;;;;;;5.78;0.82;;;15.80;72.80;;;;;;5009698;28;20080;-57
2022/05/30 09:02:30;;;;;;;3.38;0.73;;;15.90;73.10;;;;;;5007099;28;20026;-58
2022/05/30 09:05:14;;;;;;;1.77;0.28;;;16.00;73.10;;;;;;5013414;28;20056;-58
2022/05/30 09:07:49;;;;;;;3.03;0.47;;;15.70;74.10;;;;;;5008281;28;20335;-57
2022/05/30 09:10:48;;;;;;;0.85;0.20;;;15.80;74.40;;;;;;4993977;28;20022;-58
2022/05/30 09:13:23;;;;;;;3.40;0.30;;;15.90;74.30;;;;;;5003509;28;20049;-58
2022/05/30 09:16:02;;;;;;;2.00;0.47;;;15.50;76.10;;;;;;5013076;28;20394;-58
2022/05/30 09:18:52;;;;;;;4.45;0.55;;;15.40;77.50;;;;;;5010155;28;20030;-57
2022/05/30 09:21:19;;;;;;;2.42;0.50;;;15.40;78.10;;;;;;5006551;28;20577;-58
2022/05/30 09:23:46;;;;;;;5.97;0.80;;;15.30;77.60;;;;;;5009068;28;20545;-57
2022/05/30 09:26:21;;;;;;;2.72;0.50;;;15.50;75.40;;;;;;5002125;28;20034;-57
2022/05/30 09:28:49;;;;;;;4.07;0.80;;;15.40;76.50;;;;;;5008412;28;20080;-57
2022/05/30 09:31:21;;;;;;;4.78;0.80;;;15.50;75.60;;;;;;5011954;28;20042;-58
2022/05/30 09:33:56;;;;;;;2.28;0.50;;;15.60;74.80;;;;;;5005851;28;20556;-58
2022/05/30 09:36:23;;;;;;;2.83;0.45;;;15.80;73.60;;;;;;5010758;28;20065;-58
2022/05/30 09:38:50;;;;;;;2.20;0.52;;;15.60;73.30;;;;;;5009238;28;20076;-58
2022/05/30 09:41:22;;;;;;;5.38;0.75;;;15.70;73.50;;;;;;5006209;28;20033;-58
2022/05/30 09:43:58;;;;;;;;;;;15.80;72.60;;;;;;5015180;28;20490;-58
2022/05/30 09:46:32;;;;;;;0.70;0.30;;;15.90;72.50;;;;;;5014945;28;19909;-58
2022/05/30 09:49:09;;;;;;;1.40;0.77;;;15.60;73.20;;;;;;5007807;28;20425;-59
2022/05/30 09:51:43;;;;;;;3.85;0.70;;;15.60;72.50;;;;;;5011326;28;20552;-58
2022/05/30 09:54:22;;;;;;;1.23;0.30;;;15.50;72.60;;;;;;5022199;28;20049;-58
2022/05/30 09:56:49;;;;;;;3.47;0.50;;;15.70;73.30;;;;;;5020255;28;20030;-58
2022/05/30 09:59:25;;;;;;;3.42;0.52;;;15.50;75.70;;;;;;5013310;28;20037;-57
2022/05/30 10:01:52;;;;;;;2.20;0.20;;;15.50;74.10;;;;;;5016100;28;20034;-57
2022/05/30 10:04:41;;;;;;;1.90;0.50;;;15.50;74.60;;;;;;5010244;28;20060;-58
2022/05/30 10:07:19;;;;;;;2.58;0.40;;;15.50;75.00;;;;;;5005010;28;20519;-58
2022/05/30 10:10:21;;;;;;;1.80;0.45;;;15.60;76.00;;;;;;5010041;28;20124;-58
2022/05/30 10:12:57;;;;;;;5.80;1.10;;;15.80;75.20;;;;;;5013019;28;20029;-58
2022/05/30 10:15:30;;;;;;;8.38;1.48;;;16.00;73.30;;;;;;5011313;28;20413;-58
2022/05/30 10:18:24;;;;;;;3.25;1.05;;;16.50;72.60;;;;;;5021477;28;20519;-58
2022/05/30 10:21:00;;;;;;;3.85;0.40;;;16.40;70.90;;;;;;5013377;28;20034;-58
2022/05/30 10:29:26;;;;;;;1.80;0.40;;;16.50;71.20;;;;;;5015490;28;20040;-58
2022/05/30 10:32:37;;;;;;;2.08;0.40;;;16.50;71.70;;;;;;5018613;28;20049;-58
2022/05/30 10:35:24;;;;;;;1.98;0.30;;;16.70;67.90;;;;;;4997303;28;20065;-58
2022/05/30 10:38:11;;;;;;;3.65;0.75;;;16.60;69.50;;;;;;4995949;28;20502;-58
2022/05/30 10:41:04;;;;;;;7.50;0.85;;;16.80;67.90;;;;;;4990194;28;20034;-58
2022/05/30 10:43:38;;;;;;;4.00;0.90;;;17.10;69.50;;;;;;4981760;28;20034;-58
2022/05/30 10:46:21;;;;;;;2.15;0.70;;;17.30;68.30;;;;;;4975908;28;20049;-58
2022/05/30 10:49:08;;;;;;;3.58;0.73;;;17.20;67.60;;;;;;4980779;28;20031;-58
2022/05/30 10:51:52;;;;;;;2.53;0.20;;;17.10;71.10;;;;;;4989406;28;20042;-58
2022/05/30 10:54:38;;;;;;;3.80;0.50;;;17.40;69.70;;;;;;4990001;28;20235;-58
2022/05/30 10:57:27;;;;;;;2.15;0.68;;;17.00;69.00;;;;;;4995567;28;20022;-58
2022/05/30 11:00:04;;;;;;;5.03;1.02;;;17.00;67.70;;;;;;4999408;28;20026;-58
2022/05/30 11:02:48;;;;;;;1.55;0.43;;;17.10;67.20;;;;;;4999079;28;20486;-58
2022/05/30 11:05:40;;;;;;;4.60;0.43;;;16.90;69.50;;;;;;4994361;28;20096;-59
2022/05/30 11:08:24;;;;;;;1.88;0.30;;;16.60;69.40;;;;;;4981230;28;20483;-59
2022/05/30 11:11:05;;;;;;;1.52;0.40;;;16.60;69.50;;;;;;4997546;28;20092;-57
2022/05/30 11:13:52;;;;;;;5.38;0.63;;;16.80;69.30;;;;;;5006780;28;20546;-59
2022/05/30 11:16:23;;;;;;;2.47;0.73;;;17.20;67.70;;;;;;5023105;28;20179;-59
2022/05/30 11:19:00;;;;;;;4.03;0.50;;;17.30;68.50;;;;;;5019118;28;20264;-59
2022/05/30 11:21:37;;;;;;;2.10;0.50;;;17.40;69.80;;;;;;5008445;28;20030;-58
2022/05/30 11:24:05;;;;;;;5.63;0.60;;;17.40;69.80;;;;;;5008540;28;20478;-58
2022/05/30 11:26:55;;;;;;;3.25;0.52;;;17.30;68.20;;;;;;5015200;28;20018;-58
2022/05/30 11:29:47;;;;;;;1.88;0.57;;;17.60;67.60;;;;;;5002534;28;20022;-58
2022/05/30 11:32:49;;;;;;;5.20;0.40;;;17.20;70.30;;;;;;5004919;28;22135;-59
2022/05/30 11:35:34;;;;;;;3.03;0.60;;;17.80;67.60;;;;;;5011659;28;20065;-58
2022/05/30 11:38:21;;;;;;;5.05;0.68;;;17.90;66.40;;;;;;5009837;28;20061;-58
2022/05/30 11:41:18;;;;;;;1.70;0.30;;;18.20;63.50;;;;;;5010992;28;20030;-58
2022/05/30 11:44:04;;;;;;;4.10;0.40;;;17.90;65.30;;;;;;5007586;28;20084;-58
2022/05/30 11:46:33;;;;;;;1.95;0.47;;;17.80;63.60;;;;;;5014273;28;20552;-58
2022/05/30 11:49:14;;;;;;;6.07;0.70;;;17.60;64.40;;;;;;5011925;28;20144;-60
2022/05/30 11:51:48;;;;;;;4.32;0.40;;;17.70;64.80;;;;;;5012973;28;20051;-59
2022/05/30 11:54:32;;;;;;;2.47;0.73;;;17.70;64.00;;;;;;5013103;28;20084;-59
2022/05/30 11:57:13;;;;;;;2.65;0.60;;;18.00;65.40;;;;;;5013680;28;20076;-57
2022/05/30 12:00:04;;;;;;;1.65;0.52;;;18.20;65.40;;;;;;5005768;28;20030;-58
2022/05/30 12:02:42;;;;;;;4.60;0.60;;;18.40;64.50;;;;;;5018626;28;20037;-58
2022/05/30 12:05:55;;;;;;;2.55;0.77;;;18.20;65.20;;;;;;5014158;28;20636;-57
2022/05/30 12:08:32;;;;;;;1.33;0.35;;;18.40;63.20;;;;;;4979224;28;20045;-58
2022/05/30 12:11:19;;;;;;;3.65;0.80;;;18.10;64.90;;;;;;4988758;28;20058;-57
2022/05/30 12:14:22;;;;;;;4.13;0.60;;;18.20;66.30;;;;;;4978887;28;20149;-58
2022/05/30 12:17:27;;;;;;;5.10;0.50;;;18.20;65.90;;;;;;4987776;28;20030;-59
2022/05/30 12:25:35;;;;;;;2.08;0.47;;;18.00;64.50;;;;;;4986555;28;20537;-58
2022/05/30 12:28:27;;;;;;;3.05;0.63;;;18.00;62.40;;;;;;4994468;28;20045;-58
2022/05/30 12:31:02;;;;;;;1.67;0.47;;;18.30;63.20;;;;;;4980269;28;20051;-58
2022/05/30 12:33:33;;;;;;;4.15;0.60;;;18.50;62.20;;;;;;4983227;28;20164;-58
2022/05/30 12:36:31;;;;;;;3.17;0.60;;;18.50;60.50;;;;;;4981460;28;20049;-58
2022/05/30 12:38:59;;;;;;;2.92;0.50;;;18.10;63.30;;;;;;4989200;28;20037;-58
2022/05/30 12:41:54;;;;;;;1.15;0.32;;;18.30;64.30;;;;;;4990811;28;20037;-58
2022/05/30 12:44:47;;;;;;;4.85;0.88;;;19.00;60.80;;;;;;4997898;28;20052;-58
2022/05/30 12:47:30;;;;;;;7.07;0.80;;;19.50;58.90;;;;;;5017400;28;20504;-58
2022/05/30 12:50:31;;;;;;;6.25;0.73;;;19.10;59.10;;;;;;5006604;28;20026;-58
2022/05/30 12:53:00;;;;;;;2.50;0.50;;;19.50;57.80;;;;;;4965338;28;20392;-58
2022/05/30 12:55:39;;;;;;;2.65;0.60;;;21.30;54.50;;;;;;4970244;28;20050;-58
2022/05/30 12:58:06;;;;;;;4.68;1.55;;;21.70;52.80;;;;;;4969410;28;20101;-59
2022/05/30 13:00:41;;;;;;;2.25;0.68;;;21.50;52.50;;;;;;4970336;28;20529;-60
2022/05/30 13:03:28;;;;;;;3.55;0.43;;;21.10;53.30;;;;;;4963277;28;20038;-58
2022/05/30 13:06:16;;;;;;;3.88;0.40;;;20.50;52.10;;;;;;4940290;28;20153;-58
2022/05/30 13:09:06;;;;;;;2.60;0.88;;;19.90;55.30;;;;;;4936611;28;20478;-58
2022/05/30 13:12:04;;;;;;;4.03;0.52;;;20.50;52.40;;;;;;4942453;28;20035;-58
2022/05/30 13:14:41;;;;;;;6.93;1.25;;;20.40;53.20;;;;;;4939780;28;20252;-59
2022/05/30 13:17:16;;;;;;;2.80;0.43;;;19.90;54.10;;;;;;4939179;28;20650;-59
2022/05/30 13:20:07;;;;;;;2.38;0.30;;;19.60;54.30;;;;;;4947565;28;20050;-59
2022/05/30 13:22:45;;;;;;;2.70;0.40;;;19.50;55.70;;;;;;4951812;28;20042;-59
2022/05/30 13:25:31;;;;;;;2.13;0.30;;;19.50;57.00;;;;;;4945791;28;20045;-58
2022/05/30 13:28:14;;;;;;;4.47;0.90;;;20.20;54.80;;;;;;4942880;28;20039;-59
2022/05/30 13:30:41;;;;;;;1.25;0.32;;;21.10;52.50;;;;;;4980006;28;20041;-59
2022/05/30 13:33:22;;;;;;;3.55;0.60;;;21.50;50.70;;;;;;4985112;28;20573;-58
2022/05/30 13:35:51;;;;;;;1.35;0.60;;;21.50;49.80;;;;;;4985586;28;20037;-58
2022/05/30 13:38:17;;;;;;;3.03;0.50;;;20.50;50.90;;;;;;4981974;28;20033;-57
2022/05/30 13:40:46;;;;;;;1.90;0.57;;;20.40;51.30;;;;;;4985131;28;20084;-58